Warning: Javascript must be enabled to use all the features on this page!


Page Loading - Please Wait...

Click to hideNews Bulletins

Peak Streamflow for the Nation

USGS 04250200 SALMON RIVER AT PINEVILLE NY

Oswego County, New York
Hydrologic Unit Code 04140102
Latitude  43°31'52.3", Longitude  76°02'15.7" NAD83
Drainage area 238  square miles
Gage datum 475.35 feet above NAVD88
Output formats
Table
Graph
Tab-separated file
peakfq (watstore) format
Reselect output format
Water
Year
Date Gage
Height
(feet)
Stream-
flow
(cfs)
1953 1952-12-11   18,2005,7
1972 1972-06-23   17,4002,5,7,9
1985 1984-12-29 16.36 24,8005,7
1993 1993-04-11 11.63 9,0605
1994 1994-04-17 10.82 7,1705
1995 1995-01-16 8.22 2,6305
1996 1996-04-23 10.70 6,9105
1997 1996-11-09 10.81 7,1505
1998 1998-01-08 12.62 11,7005
1999 1999-07-04 11.66 9,1405
2000 2000-04-05 10.32 6,1105
2001 2001-04-12 10.84 7,2105
2002 2002-04-14 12.07 10,2005
2003 2003-05-13 11.28 8,2105
2004 2004-05-24 10.77 7,0605
2005 2005-09-01 10.24 5,9505
2006 2005-11-30 10.19 5,8505
2007 2007-04-25 9.19 4,0505
2008 2008-04-13 9.18 4,0405
2009 2009-04-05 9.61 4,7705
2010 2010-06-29 9.45 4,4905
2011 2010-10-01 14.30 17,0005
2012 2012-01-28 7.93 2,2705
2013 2013-04-20 11.07 7,7305
2014 2014-04-15 11.36 8,9105
2015 2015-06-10 10.12 6,1405
2016 2016-02-25 8.26 2,8205
2017 2017-04-07 10.42 6,5205
2018 2017-11-06 9.29 4,3905
2019 2019-04-14 9.87 5,4305
2020 2019-11-01 9.24 4,3105
?
  Peak Streamflow Qualification Codes.